Arrow Rock, Missouri
Current Conditions -  °F | °C
As of 9:35 PM on Sunday 21 Dec 2014 (Local Time) from KVER Reporting Station
Overcast Overcast  
Wind Chill: 35°   Ceiling: 5000
Heat Index: 42°   Visibility: 10mi
Dew Point: 38°   Wind: 13mph
Humidity: 86%   Direction: 140°SE
Pressure: 29.86"   Gusts: NA
Location:  39.07°N, 92.95°W
Report Text: KVER 220335Z AUTO 14011KT 10SM OVC050 05/03 A2986 RMK AO2 T00530031
Loading
Personal Weather Stations






























Interactive Weather Map New forecast layout! Learn more

10-Day Weather Forecast

Advertisements
Track Severe Weather on mobile